sensor_id;sensor_type;location;lat;lon;timestamp;P1;durP1;ratioP1;P2;durP2;ratioP2
12373;SDS011;6251;51.762;8.660;2022-10-17T04:00:43;7.22;;;5.62;;
12373;SDS011;6251;51.762;8.660;2022-10-17T04:10:44;6.68;;;5.97;;
12373;SDS011;6251;51.762;8.660;2022-10-17T04:20:44;6.40;;;5.53;;
12373;SDS011;6251;51.762;8.660;2022-10-17T04:30:45;6.40;;;5.87;;
12373;SDS011;6251;51.762;8.660;2022-10-17T04:40:45;11.75;;;9.25;;
12373;SDS011;6251;51.762;8.660;2022-10-17T04:50:56;14.77;;;10.63;;
12373;SDS011;6251;51.762;8.660;2022-10-17T05:00:58;9.88;;;8.68;;
12373;SDS011;6251;51.762;8.660;2022-10-17T05:11:04;9.20;;;8.02;;
12373;SDS011;6251;51.762;8.660;2022-10-17T05:21:13;8.50;;;7.70;;
12373;SDS011;6251;51.762;8.660;2022-10-17T05:31:13;7.03;;;6.32;;
12373;SDS011;6251;51.762;8.660;2022-10-17T05:41:14;6.15;;;5.62;;
12373;SDS011;6251;51.762;8.660;2022-10-17T05:51:15;5.68;;;5.18;;
12373;SDS011;6251;51.762;8.660;2022-10-17T06:01:15;6.10;;;5.60;;
12373;SDS011;6251;51.762;8.660;2022-10-17T06:11:16;9.23;;;8.38;;
12373;SDS011;6251;51.762;8.660;2022-10-17T06:21:18;7.95;;;7.25;;
12373;SDS011;6251;51.762;8.660;2022-10-17T06:31:21;8.55;;;7.78;;
12373;SDS011;6251;51.762;8.660;2022-10-17T06:41:22;6.25;;;5.75;;
12373;SDS011;6251;51.762;8.660;2022-10-17T06:51:22;6.05;;;5.45;;
12373;SDS011;6251;51.762;8.660;2022-10-17T07:01:23;6.12;;;5.53;;
12373;SDS011;6251;51.762;8.660;2022-10-17T07:11:23;5.80;;;5.30;;
12373;SDS011;6251;51.762;8.660;2022-10-17T07:21:24;8.23;;;6.68;;
12373;SDS011;6251;51.762;8.660;2022-10-17T07:31:25;7.32;;;5.82;;
12373;SDS011;6251;51.762;8.660;2022-10-17T07:41:26;6.73;;;6.17;;
12373;SDS011;6251;51.762;8.660;2022-10-17T07:51:26;5.65;;;5.15;;
12373;SDS011;6251;51.762;8.660;2022-10-17T08:01:27;6.37;;;5.77;;
12373;SDS011;6251;51.762;8.660;2022-10-17T08:11:28;6.07;;;5.47;;
12373;SDS011;6251;51.762;8.660;2022-10-17T08:21:28;6.00;;;5.50;;
12373;SDS011;6251;51.762;8.660;2022-10-17T08:31:29;6.97;;;5.65;;
12373;SDS011;6251;51.762;8.660;2022-10-17T08:51:31;5.55;;;5.15;;
12373;SDS011;6251;51.762;8.660;2022-10-17T09:22:19;7.03;;;5.20;;
12373;SDS011;6251;51.762;8.660;2022-10-17T09:32:23;8.65;;;5.20;;
12373;SDS011;6251;51.762;8.660;2022-10-17T09:42:25;4.90;;;4.60;;
12373;SDS011;6251;51.762;8.660;2022-10-17T09:52:28;6.22;;;4.65;;
12373;SDS011;6251;51.762;8.660;2022-10-17T10:02:34;5.15;;;4.65;;
12373;SDS011;6251;51.762;8.660;2022-10-17T10:12:39;4.78;;;4.37;;
12373;SDS011;6251;51.762;8.660;2022-10-17T10:33:20;3.90;;;3.70;;
12373;SDS011;6251;51.762;8.660;2022-10-17T10:43:28;4.45;;;4.07;;
12373;SDS011;6251;51.762;8.660;2022-10-17T11:14:55;4.28;;;3.50;;
12373;SDS011;6251;51.762;8.660;2022-10-17T11:35:36;5.70;;;3.20;;
12373;SDS011;6251;51.762;8.660;2022-10-17T11:45:42;4.90;;;3.35;;
12373;SDS011;6251;51.762;8.660;2022-10-17T11:55:47;3.50;;;3.30;;
12373;SDS011;6251;51.762;8.660;2022-10-17T12:26:28;4.00;;;3.55;;
12373;SDS011;6251;51.762;8.660;2022-10-17T12:46:49;5.45;;;3.37;;
12373;SDS011;6251;51.762;8.660;2022-10-17T12:57:18;4.72;;;3.40;;
12373;SDS011;6251;51.762;8.660;2022-10-17T13:07:32;5.35;;;3.50;;
12373;SDS011;6251;51.762;8.660;2022-10-17T13:17:35;4.28;;;3.58;;
12373;SDS011;6251;51.762;8.660;2022-10-17T13:27:35;4.00;;;3.70;;
12373;SDS011;6251;51.762;8.660;2022-10-17T13:37:38;3.75;;;3.45;;
12373;SDS011;6251;51.762;8.660;2022-10-17T13:47:40;4.35;;;4.05;;
12373;SDS011;6251;51.762;8.660;2022-10-17T13:57:41;4.15;;;3.70;;
12373;SDS011;6251;51.762;8.660;2022-10-17T14:08:01;4.30;;;3.92;;
12373;SDS011;6251;51.762;8.660;2022-10-17T14:18:04;4.50;;;4.12;;
12373;SDS011;6251;51.762;8.660;2022-10-17T14:38:11;6.95;;;3.97;;
12373;SDS011;6251;51.762;8.660;2022-10-17T14:48:19;4.53;;;4.00;;
12373;SDS011;6251;51.762;8.660;2022-10-17T14:58:23;4.32;;;3.95;;
12373;SDS011;6251;51.762;8.660;2022-10-17T15:08:26;3.95;;;3.75;;
12373;SDS011;6251;51.762;8.660;2022-10-17T15:18:27;7.47;;;4.57;;
12373;SDS011;6251;51.762;8.660;2022-10-17T15:28:28;7.82;;;5.47;;
12373;SDS011;6251;51.762;8.660;2022-10-17T15:38:28;5.25;;;4.75;;
12373;SDS011;6251;51.762;8.660;2022-10-17T15:48:40;6.67;;;4.90;;
12373;SDS011;6251;51.762;8.660;2022-10-17T15:58:41;5.00;;;4.47;;
12373;SDS011;6251;51.762;8.660;2022-10-17T16:08:43;4.55;;;3.95;;
12373;SDS011;6251;51.762;8.660;2022-10-17T16:18:48;7.45;;;4.00;;
12373;SDS011;6251;51.762;8.660;2022-10-17T16:28:49;4.25;;;3.58;;
12373;SDS011;6251;51.762;8.660;2022-10-17T16:38:50;4.90;;;3.60;;
12373;SDS011;6251;51.762;8.660;2022-10-17T16:48:52;4.97;;;3.20;;
12373;SDS011;6251;51.762;8.660;2022-10-17T16:58:53;5.68;;;3.65;;
12373;SDS011;6251;51.762;8.660;2022-10-17T17:08:56;4.40;;;4.00;;
12373;SDS011;6251;51.762;8.660;2022-10-17T17:18:57;5.22;;;4.37;;
12373;SDS011;6251;51.762;8.660;2022-10-17T17:29:00;7.47;;;4.93;;
12373;SDS011;6251;51.762;8.660;2022-10-17T17:39:02;6.37;;;5.78;;
12373;SDS011;6251;51.762;8.660;2022-10-17T17:49:08;7.68;;;6.18;;
12373;SDS011;6251;51.762;8.660;2022-10-17T17:59:11;9.20;;;6.70;;
12373;SDS011;6251;51.762;8.660;2022-10-17T18:09:12;11.77;;;7.35;;
12373;SDS011;6251;51.762;8.660;2022-10-17T18:19:12;7.78;;;7.05;;
12373;SDS011;6251;51.762;8.660;2022-10-17T18:29:13;7.83;;;7.03;;
12373;SDS011;6251;51.762;8.660;2022-10-17T18:39:14;10.18;;;7.85;;
12373;SDS011;6251;51.762;8.660;2022-10-17T18:59:49;13.62;;;9.15;;
12373;SDS011;6251;51.762;8.660;2022-10-17T19:09:50;11.23;;;8.77;;
12373;SDS011;6251;51.762;8.660;2022-10-17T19:19:51;13.60;;;9.07;;
12373;SDS011;6251;51.762;8.660;2022-10-17T19:40:09;10.73;;;9.48;;
12373;SDS011;6251;51.762;8.660;2022-10-17T19:50:11;11.82;;;10.15;;
12373;SDS011;6251;51.762;8.660;2022-10-17T20:00:11;12.70;;;10.70;;
12373;SDS011;6251;51.762;8.660;2022-10-17T20:10:12;11.45;;;10.23;;
12373;SDS011;6251;51.762;8.660;2022-10-17T20:20:13;11.18;;;9.68;;
12373;SDS011;6251;51.762;8.660;2022-10-17T20:30:14;12.52;;;9.77;;
12373;SDS011;6251;51.762;8.660;2022-10-17T20:40:15;10.98;;;9.15;;
12373;SDS011;6251;51.762;8.660;2022-10-17T20:50:16;11.38;;;9.45;;
12373;SDS011;6251;51.762;8.660;2022-10-17T21:00:16;12.85;;;10.20;;
12373;SDS011;6251;51.762;8.660;2022-10-17T21:10:17;14.45;;;11.25;;
